KCBM

Columbus AFB Airport

Columbus, Mississippi, USA
METAR KCBM 231956Z AUTO 35006KT 10SM FEW180 FEW210 20/09 A3019 RMK AO2 SLP226 T02000086 $
Observed Flight Rules
Oct-23 @ 19:56 UTC (54 minutes ago) Visual Flight Rules
Wind Visibility Clouds
350° at 6 knots 10 miles
  • Few at 18,000' AGL
  • Few at 21,000' AGL
Temperatures Readings
Current 20°C / 68°F
Dewpoint 9°C / 48°F
Humidity 49%
Altimeter 30.19" Hg
Pressure 1022.6 hPa
Elevation 67
METAR KCBM 231956Z AUTO 35006KT 10SM FEW180 FEW210 20/09 A3019 RMK AO2 SLP226 T02000086 $
Observed Flight Rules
Oct-23 @ 19:56 UTC
(54 minutes ago)
VFR
Wind Visibility
350° at 6 knots 10 miles
Clouds
  • Few at 18,000' AGL
  • Few at 21,000' AGL
Temperature Dewpoint
20°C / 68°F 9°C / 48°F
Humidity Altimeter Pressure
49% 30.19" Hg 1022.6 hPa